createdAt,value
2022-08-20T00:00:42.222Z,71.59
2022-08-20T00:03:18.566Z,71.85
2022-08-20T00:05:56.953Z,71.74
2022-08-20T00:08:29.138Z,71.84
2022-08-20T00:11:01.069Z,71.62
2022-08-20T00:13:35.729Z,71.64
2022-08-20T00:16:08.055Z,71.64
2022-08-20T00:18:40.012Z,71.62
2022-08-20T00:21:18.082Z,71.76
2022-08-20T00:23:53.217Z,71.70
2022-08-20T00:26:25.396Z,71.67
2022-08-20T00:28:57.229Z,71.83
2022-08-20T00:31:29.953Z,71.80
2022-08-20T00:34:01.120Z,71.73
2022-08-20T00:36:34.148Z,71.87
2022-08-20T00:39:05.156Z,71.74
2022-08-20T00:41:36.059Z,71.68
2022-08-20T00:44:17.153Z,71.73
2022-08-20T00:46:49.134Z,71.70
2022-08-20T00:49:22.951Z,71.75
2022-08-20T00:51:58.646Z,71.75
2022-08-20T00:54:35.229Z,71.73
2022-08-20T00:57:06.862Z,71.81
2022-08-20T00:59:40.199Z,71.74
2022-08-20T01:02:15.945Z,71.91
2022-08-20T01:04:50.732Z,71.90
2022-08-20T01:07:24.782Z,72.01
2022-08-20T01:09:59.184Z,72.21
2022-08-20T01:12:32.597Z,72.20
2022-08-20T01:15:06.178Z,72.28
2022-08-20T01:17:41.880Z,72.49
2022-08-20T01:20:17.932Z,72.69
2022-08-20T01:23:14.858Z,72.74
2022-08-20T01:25:49.985Z,72.99
2022-08-20T01:28:33.449Z,72.82
2022-08-20T01:31:05.206Z,72.93
2022-08-20T01:33:36.256Z,72.92
2022-08-20T01:36:08.883Z,73.01
2022-08-20T01:38:40.291Z,73.09
2022-08-20T01:41:36.487Z,73.08
2022-08-20T01:44:10.994Z,73.30
2022-08-20T01:46:51.168Z,73.41
2022-08-20T01:49:25.372Z,73.31
2022-08-20T01:51:59.629Z,73.44
2022-08-20T01:54:33.945Z,73.52
2022-08-20T01:57:11.442Z,73.59
2022-08-20T01:59:42.718Z,73.56
2022-08-20T02:02:14.822Z,73.66
2022-08-20T02:04:46.851Z,73.58
2022-08-20T02:07:22.580Z,73.65
2022-08-20T02:09:53.488Z,73.68
2022-08-20T02:12:24.449Z,73.69
2022-08-20T02:14:57.246Z,73.56
2022-08-20T02:17:28.864Z,73.61
2022-08-20T02:20:02.790Z,73.68
2022-08-20T02:22:40.779Z,73.60
2022-08-20T02:25:23.072Z,73.57
2022-08-20T02:27:55.566Z,73.74
2022-08-20T02:30:33.356Z,73.65
2022-08-20T02:33:06.970Z,73.47
2022-08-20T02:35:38.648Z,73.86
2022-08-20T02:38:10.010Z,74.25
2022-08-20T02:40:41.537Z,74.11
2022-08-20T02:43:14.606Z,74.19
2022-08-20T02:45:45.539Z,74.24
2022-08-20T02:48:21.369Z,73.80
2022-08-20T02:50:56.852Z,73.96
2022-08-20T02:53:29.344Z,74.34
2022-08-20T02:56:01.076Z,74.39
2022-08-20T02:58:32.102Z,74.53
2022-08-20T03:01:04.328Z,74.20
2022-08-20T03:03:35.804Z,74.40
2022-08-20T03:06:10.289Z,74.51
2022-08-20T03:08:41.603Z,74.45
2022-08-20T03:11:13.508Z,74.80
2022-08-20T03:13:45.120Z,74.70
2022-08-20T03:16:17.237Z,74.78
2022-08-20T03:18:52.091Z,74.75
2022-08-20T03:21:23.787Z,75.16
2022-08-20T03:23:54.874Z,75.13
2022-08-20T03:26:26.011Z,75.26
2022-08-20T03:28:56.798Z,75.50
2022-08-20T03:31:28.055Z,75.31
2022-08-20T03:33:59.337Z,75.86
2022-08-20T03:36:31.799Z,76.38
2022-08-20T03:39:05.982Z,76.28
2022-08-20T03:41:37.030Z,76.25
2022-08-20T03:44:08.203Z,76.17
2022-08-20T03:46:40.172Z,76.30
2022-08-20T03:49:11.620Z,76.43
2022-08-20T03:51:56.170Z,76.28
2022-08-20T03:54:32.191Z,76.17
2022-08-20T03:57:03.977Z,75.99
2022-08-20T03:59:44.803Z,76.01
2022-08-20T04:02:15.759Z,76.05
2022-08-20T04:04:47.134Z,76.04
2022-08-20T04:07:25.943Z,76.00
2022-08-20T04:09:58.039Z,76.10
2022-08-20T04:12:29.516Z,76.08
2022-08-20T04:15:00.803Z,76.23
2022-08-20T04:17:33.735Z,76.27
2022-08-20T04:20:08.173Z,76.41
2022-08-20T04:22:41.813Z,76.48
2022-08-20T04:25:26.194Z,76.70
2022-08-20T04:27:58.268Z,76.48
2022-08-20T04:30:30.960Z,76.61
2022-08-20T04:33:02.098Z,76.65
2022-08-20T04:35:33.332Z,76.72
2022-08-20T04:38:07.419Z,76.94
2022-08-20T04:40:58.236Z,76.89
2022-08-20T04:43:30.818Z,76.61
2022-08-20T04:46:03.733Z,76.57
2022-08-20T04:48:34.899Z,76.48
2022-08-20T04:51:06.443Z,76.58
2022-08-20T04:53:39.426Z,76.59
2022-08-20T04:56:11.426Z,76.53
2022-08-20T04:58:48.336Z,76.42
2022-08-20T05:01:19.438Z,76.20
2022-08-20T05:03:51.467Z,76.01
2022-08-20T05:06:24.803Z,75.73
2022-08-20T05:08:58.096Z,75.68
2022-08-20T05:11:34.940Z,75.63
2022-08-20T05:14:09.609Z,75.57
2022-08-20T05:16:41.806Z,75.03
2022-08-20T05:19:14.807Z,74.73
2022-08-20T05:21:45.756Z,74.55
2022-08-20T05:24:16.911Z,74.43
2022-08-20T05:26:47.829Z,74.23
2022-08-20T05:29:19.401Z,74.11
2022-08-20T05:31:50.371Z,73.95
2022-08-20T05:34:21.212Z,73.80
2022-08-20T05:36:54.079Z,74.14
2022-08-20T05:39:26.541Z,73.81
2022-08-20T05:41:59.239Z,73.47
2022-08-20T05:44:30.136Z,73.25
2022-08-20T05:47:02.115Z,73.46
2022-08-20T05:49:35.641Z,73.43
2022-08-20T05:52:07.412Z,73.42
2022-08-20T05:54:38.456Z,73.31
2022-08-20T05:57:09.400Z,73.29
2022-08-20T05:59:40.660Z,72.84
2022-08-20T06:02:32.409Z,72.78
2022-08-20T06:05:03.716Z,72.92
2022-08-20T06:07:34.699Z,73.05
2022-08-20T06:10:06.373Z,72.72
2022-08-20T06:12:37.660Z,72.66
2022-08-20T06:15:10.000Z,72.47
2022-08-20T06:17:41.349Z,72.04
2022-08-20T06:20:15.066Z,72.05
2022-08-20T06:22:47.330Z,71.93
2022-08-20T06:25:18.464Z,71.80
2022-08-20T06:27:50.427Z,71.70
2022-08-20T06:30:21.486Z,71.52
2022-08-20T06:32:52.537Z,71.41
2022-08-20T06:35:23.952Z,71.18
2022-08-20T06:37:57.488Z,71.40
2022-08-20T06:40:30.139Z,71.57
2022-08-20T06:43:01.472Z,71.36
2022-08-20T06:45:33.956Z,71.20
2022-08-20T06:48:10.232Z,71.35
2022-08-20T06:50:48.181Z,70.93
2022-08-20T06:53:20.675Z,70.94
2022-08-20T06:55:54.211Z,70.82
2022-08-20T06:58:37.744Z,70.71
2022-08-20T07:01:11.470Z,70.64
2022-08-20T07:03:54.832Z,70.54
2022-08-20T07:06:28.177Z,70.30
2022-08-20T07:08:59.232Z,70.29
2022-08-20T07:11:30.448Z,70.17
2022-08-20T07:14:03.426Z,69.88
2022-08-20T07:16:34.637Z,69.90
2022-08-20T07:19:06.049Z,69.80
2022-08-20T07:21:37.606Z,69.59
2022-08-20T07:24:09.749Z,69.82
2022-08-20T07:26:40.671Z,69.75
2022-08-20T07:29:11.591Z,69.52
2022-08-20T07:32:00.199Z,69.42
2022-08-20T07:34:31.590Z,69.44
2022-08-20T07:37:03.178Z,69.28
2022-08-20T07:39:35.690Z,69.40
2022-08-20T07:42:07.639Z,69.44
2022-08-20T07:44:39.444Z,69.42
2022-08-20T07:47:10.841Z,69.48
2022-08-20T07:49:41.988Z,69.58
2022-08-20T07:52:13.323Z,69.49
2022-08-20T07:54:44.491Z,69.65
2022-08-20T07:57:17.382Z,69.53
2022-08-20T07:59:48.855Z,69.81
2022-08-20T08:02:19.976Z,69.73
2022-08-20T08:04:53.663Z,69.80
2022-08-20T08:07:26.524Z,69.87
2022-08-20T08:09:58.807Z,69.79
2022-08-20T08:12:37.835Z,69.68
2022-08-20T08:15:14.262Z,69.57
2022-08-20T08:17:47.379Z,69.47
2022-08-20T08:20:19.308Z,69.26
2022-08-20T08:22:50.938Z,68.88
2022-08-20T08:25:22.251Z,68.86
2022-08-20T08:27:53.611Z,68.73
2022-08-20T08:30:24.491Z,68.91
2022-08-20T08:33:14.258Z,68.35
2022-08-20T08:35:46.297Z,68.00
2022-08-20T08:38:17.438Z,68.00
2022-08-20T08:40:48.448Z,66.96
2022-08-20T08:43:26.202Z,66.71
2022-08-20T08:46:06.236Z,66.33
2022-08-20T08:48:43.590Z,66.45
2022-08-20T08:51:20.879Z,66.03
2022-08-20T08:53:57.059Z,65.53
2022-08-20T08:56:31.559Z,65.48
2022-08-20T08:59:06.324Z,65.50
2022-08-20T09:01:54.879Z,65.32
2022-08-20T09:04:33.832Z,65.30
2022-08-20T09:07:11.917Z,64.74
2022-08-20T09:09:47.501Z,64.77
2022-08-20T09:12:20.857Z,64.96
2022-08-20T09:14:53.346Z,65.16
2022-08-20T09:17:25.067Z,64.88
2022-08-20T09:19:55.954Z,64.61
2022-08-20T09:22:27.075Z,64.60
2022-08-20T09:24:59.135Z,64.61
2022-08-20T09:27:31.538Z,63.93
2022-08-20T09:30:02.408Z,63.95
2022-08-20T09:32:33.763Z,62.74
2022-08-20T09:35:09.225Z,63.32
2022-08-20T09:37:41.209Z,62.80
2022-08-20T09:40:14.577Z,62.93
2022-08-20T09:42:53.470Z,63.22
2022-08-20T09:45:24.803Z,61.73
2022-08-20T09:47:56.903Z,61.89
2022-08-20T09:50:30.746Z,62.50
2022-08-20T09:53:04.149Z,61.70
2022-08-20T09:55:38.597Z,61.06
2022-08-20T09:58:18.007Z,60.51
2022-08-20T10:00:50.072Z,61.62
2022-08-20T10:03:21.074Z,61.46
2022-08-20T10:05:52.081Z,60.16
2022-08-20T10:08:22.890Z,59.68
2022-08-20T10:10:54.034Z,60.30
2022-08-20T10:13:25.098Z,60.24
2022-08-20T10:15:56.057Z,59.40
2022-08-20T10:18:27.312Z,59.81
2022-08-20T10:20:58.231Z,59.77
2022-08-20T10:23:29.457Z,60.03
2022-08-20T10:26:00.475Z,59.30
2022-08-20T10:28:31.536Z,59.11
2022-08-20T10:31:02.514Z,58.99
2022-08-20T10:33:33.668Z,58.81
2022-08-20T10:36:10.901Z,58.09
2022-08-20T10:38:42.784Z,57.45
2022-08-20T10:41:13.653Z,57.64
2022-08-20T10:43:44.735Z,58.14
2022-08-20T10:46:16.132Z,57.55
2022-08-20T10:48:47.348Z,57.40
2022-08-20T10:51:18.203Z,57.94
2022-08-20T10:53:50.479Z,57.91
2022-08-20T10:56:21.494Z,58.14
2022-08-20T10:58:52.802Z,58.42
2022-08-20T11:01:31.299Z,57.72
2022-08-20T11:04:04.907Z,57.75
2022-08-20T11:06:36.130Z,57.74
2022-08-20T11:09:06.892Z,58.24
2022-08-20T11:11:40.762Z,57.33
2022-08-20T11:14:11.840Z,57.76
2022-08-20T11:16:42.829Z,58.42
2022-08-20T11:19:13.605Z,58.48
2022-08-20T11:21:44.576Z,58.06
2022-08-20T11:24:15.790Z,58.47
2022-08-20T11:26:49.354Z,57.72
2022-08-20T11:29:20.662Z,57.69
2022-08-20T11:31:51.476Z,58.07
2022-08-20T11:34:22.325Z,57.63
2022-08-20T11:36:54.133Z,57.55
2022-08-20T11:39:25.417Z,56.79
2022-08-20T11:41:56.841Z,57.75
2022-08-20T11:44:28.340Z,58.02
2022-08-20T11:47:03.601Z,58.05
2022-08-20T11:49:35.982Z,58.04
2022-08-20T11:52:08.254Z,57.65
2022-08-20T11:54:40.703Z,57.04
2022-08-20T11:57:11.991Z,57.00
2022-08-20T11:59:42.973Z,56.74
2022-08-20T12:02:14.099Z,56.69
2022-08-20T12:04:45.242Z,56.47
2022-08-20T12:07:19.984Z,57.10
2022-08-20T12:09:52.116Z,57.71
2022-08-20T12:12:24.578Z,58.05
2022-08-20T12:14:56.602Z,57.89
2022-08-20T12:17:30.165Z,58.13
2022-08-20T12:20:03.655Z,57.84
2022-08-20T12:22:34.589Z,57.80
2022-08-20T12:25:08.074Z,57.07
2022-08-20T12:27:39.788Z,57.43
2022-08-20T12:30:13.915Z,58.04
2022-08-20T12:32:44.953Z,57.68
2022-08-20T12:35:18.071Z,56.82
2022-08-20T12:37:49.725Z,55.80
2022-08-20T12:40:30.763Z,55.30
2022-08-20T12:43:05.031Z,55.53
2022-08-20T12:45:37.317Z,55.75
2022-08-20T12:48:11.500Z,56.19
2022-08-20T12:50:45.744Z,55.44
2022-08-20T12:53:16.872Z,53.96
2022-08-20T12:55:48.045Z,53.40
2022-08-20T12:58:19.309Z,54.17
2022-08-20T13:00:51.398Z,54.91
2022-08-20T13:03:23.316Z,55.15
2022-08-20T13:05:54.338Z,55.35
2022-08-20T13:08:25.407Z,56.02
2022-08-20T13:10:56.446Z,56.84
2022-08-20T13:13:27.463Z,55.79
2022-08-20T13:15:58.505Z,55.75
2022-08-20T13:18:29.404Z,56.25
2022-08-20T13:21:00.246Z,55.79
2022-08-20T13:23:31.290Z,56.24
2022-08-20T13:26:02.385Z,56.17
2022-08-20T13:28:33.425Z,55.87
2022-08-20T13:31:04.631Z,56.43
2022-08-20T13:33:36.261Z,56.02
2022-08-20T13:36:08.054Z,56.22
2022-08-20T13:38:39.030Z,56.44
2022-08-20T13:41:10.172Z,56.55
2022-08-20T13:43:41.098Z,56.91
2022-08-20T13:46:12.027Z,56.88
2022-08-20T13:48:43.062Z,57.51
2022-08-20T13:51:14.045Z,57.55
2022-08-20T13:53:50.153Z,57.52
2022-08-20T13:56:22.005Z,57.83
2022-08-20T13:58:53.182Z,57.89
2022-08-20T14:01:24.068Z,58.48
2022-08-20T14:03:55.181Z,58.59
2022-08-20T14:06:27.242Z,58.63
2022-08-20T14:08:58.654Z,58.23
2022-08-20T14:11:29.630Z,58.51
2022-08-20T14:14:00.863Z,58.40
2022-08-20T14:16:35.079Z,58.57
2022-08-20T14:19:07.092Z,58.14
2022-08-20T14:21:38.578Z,58.15
2022-08-20T14:24:10.448Z,57.95
2022-08-20T14:26:41.621Z,58.04
2022-08-20T14:29:12.708Z,57.03
2022-08-20T14:31:43.735Z,57.21
2022-08-20T14:34:14.698Z,57.24
2022-08-20T14:36:45.564Z,56.85
2022-08-20T14:39:20.503Z,56.74
2022-08-20T14:41:52.039Z,56.52
2022-08-20T14:44:22.959Z,56.07
2022-08-20T14:46:53.972Z,56.17
2022-08-20T14:49:24.991Z,56.55
2022-08-20T14:51:56.359Z,56.74
2022-08-20T14:54:27.482Z,56.80
2022-08-20T14:57:02.106Z,57.05
2022-08-20T14:59:33.717Z,57.41
2022-08-20T15:02:04.897Z,57.72
2022-08-20T15:04:35.982Z,58.10
2022-08-20T15:07:13.053Z,57.89
2022-08-20T15:09:44.456Z,58.36
2022-08-20T15:12:15.327Z,58.77
2022-08-20T15:14:48.041Z,59.07
2022-08-20T15:17:23.349Z,59.31
2022-08-20T15:19:55.123Z,59.22
2022-08-20T15:22:26.456Z,58.72
2022-08-20T15:24:57.871Z,58.39
2022-08-20T15:27:29.007Z,58.03
2022-08-20T15:29:59.882Z,57.66
2022-08-20T15:32:30.860Z,57.68
2022-08-20T15:35:01.767Z,57.80
2022-08-20T15:37:32.938Z,57.32
2022-08-20T15:40:07.793Z,57.16
2022-08-20T15:42:39.228Z,57.11
2022-08-20T15:45:12.961Z,57.38
2022-08-20T15:47:55.804Z,57.58
2022-08-20T15:50:39.657Z,57.71
2022-08-20T15:53:17.443Z,57.54
2022-08-20T15:55:57.144Z,57.44
2022-08-20T15:58:38.159Z,57.35
2022-08-20T16:01:25.195Z,57.48
2022-08-20T16:04:33.193Z,57.68
2022-08-20T16:07:14.392Z,58.35
2022-08-20T16:09:59.868Z,58.78
2022-08-20T16:12:35.747Z,59.15
2022-08-20T16:15:11.288Z,59.42
2022-08-20T16:17:47.126Z,60.01
2022-08-20T16:20:24.724Z,60.05
2022-08-20T16:23:18.854Z,60.47
2022-08-20T16:26:05.643Z,60.75
2022-08-20T16:29:02.905Z,61.17
2022-08-20T16:31:42.472Z,61.41
2022-08-20T16:34:33.252Z,61.77
2022-08-20T16:37:15.757Z,61.77
2022-08-20T16:39:55.447Z,62.09
2022-08-20T16:42:30.815Z,62.17
2022-08-20T16:45:03.899Z,62.28
2022-08-20T16:47:40.783Z,62.41
2022-08-20T16:50:17.873Z,62.29
2022-08-20T16:52:51.774Z,62.45
2022-08-20T16:55:24.540Z,62.51
2022-08-20T16:57:56.648Z,62.70
2022-08-20T17:00:35.164Z,62.70
2022-08-20T17:03:08.536Z,62.78
2022-08-20T17:05:49.749Z,63.00
2022-08-20T17:08:25.933Z,63.00
2022-08-20T17:11:02.376Z,63.08
2022-08-20T17:13:37.264Z,63.16
2022-08-20T17:16:23.416Z,63.46
2022-08-20T17:18:55.545Z,63.25
2022-08-20T17:21:35.571Z,63.45
2022-08-20T17:24:16.844Z,63.23
2022-08-20T17:26:50.886Z,63.58
2022-08-20T17:29:29.643Z,63.43
2022-08-20T17:32:02.491Z,63.49
2022-08-20T17:34:44.495Z,63.33
2022-08-20T17:37:23.864Z,63.56
2022-08-20T17:40:06.122Z,63.56
2022-08-20T17:42:49.213Z,63.62
2022-08-20T17:45:25.686Z,63.66
2022-08-20T17:48:00.042Z,63.63
2022-08-20T17:50:34.471Z,63.64
2022-08-20T17:53:14.248Z,63.60
2022-08-20T17:55:46.162Z,63.66
2022-08-20T17:58:18.819Z,63.76
2022-08-20T18:00:50.211Z,63.68
2022-08-20T18:03:26.888Z,63.85
2022-08-20T18:05:58.845Z,64.36
2022-08-20T18:08:36.837Z,64.49
2022-08-20T18:11:27.635Z,64.86
2022-08-20T18:14:17.982Z,64.99
2022-08-20T18:17:01.571Z,65.48
2022-08-20T18:19:50.923Z,66.09
2022-08-20T18:22:24.721Z,67.90
2022-08-20T18:25:04.994Z,68.33
2022-08-20T18:27:43.569Z,68.35
2022-08-20T18:30:20.123Z,69.40
2022-08-20T18:32:50.680Z,70.83
2022-08-20T18:35:24.033Z,71.65
2022-08-20T18:37:55.290Z,72.68
2022-08-20T18:40:33.439Z,73.30
2022-08-20T18:43:14.966Z,73.88
2022-08-20T18:45:45.912Z,74.63
2022-08-20T18:48:25.062Z,75.16
2022-08-20T18:50:58.961Z,75.41
2022-08-20T18:53:34.454Z,75.73
2022-08-20T18:56:08.761Z,76.21
2022-08-20T18:58:55.580Z,76.48
2022-08-20T19:01:26.620Z,76.93
2022-08-20T19:03:59.212Z,76.73
2022-08-20T19:06:42.476Z,76.89
2022-08-20T19:09:20.417Z,77.06
2022-08-20T19:12:06.131Z,77.37
2022-08-20T19:14:55.375Z,77.86
2022-08-20T19:17:38.773Z,78.04
2022-08-20T19:20:16.248Z,78.41
2022-08-20T19:22:48.447Z,78.36
2022-08-20T19:25:29.831Z,78.65
2022-08-20T19:28:03.857Z,78.84
2022-08-20T19:30:40.605Z,78.97
2022-08-20T19:33:10.792Z,79.07
2022-08-20T19:35:42.075Z,79.27
2022-08-20T19:38:17.968Z,79.27
2022-08-20T19:40:49.218Z,79.31
2022-08-20T19:43:24.576Z,79.56
2022-08-20T19:45:58.143Z,79.59
2022-08-20T19:48:46.888Z,79.47
2022-08-20T19:51:33.721Z,79.45
2022-08-20T19:54:04.936Z,79.02
2022-08-20T19:56:42.701Z,79.01
2022-08-20T19:59:22.382Z,79.23
2022-08-20T20:02:00.391Z,79.28
2022-08-20T20:04:41.154Z,79.21
2022-08-20T20:07:28.287Z,79.13
2022-08-20T20:10:00.352Z,79.50
2022-08-20T20:12:33.358Z,79.44
2022-08-20T20:15:06.936Z,79.44
2022-08-20T20:17:39.175Z,79.41
2022-08-20T20:20:31.063Z,79.38
2022-08-20T20:23:06.901Z,79.25
2022-08-20T20:25:45.126Z,79.47
2022-08-20T20:28:21.535Z,79.27
2022-08-20T20:30:52.859Z,79.35
2022-08-20T20:33:31.036Z,79.46
2022-08-20T20:36:08.750Z,79.49
2022-08-20T20:38:56.375Z,79.55
2022-08-20T20:41:30.507Z,79.66
2022-08-20T20:44:05.124Z,79.55
2022-08-20T20:46:40.548Z,79.59
2022-08-20T20:49:22.742Z,79.55
2022-08-20T20:52:01.259Z,79.50
2022-08-20T20:54:42.126Z,79.62
2022-08-20T20:57:38.056Z,79.88
2022-08-20T21:00:14.980Z,79.90
2022-08-20T21:02:46.997Z,80.02
2022-08-20T21:05:20.855Z,80.05
2022-08-20T21:07:56.115Z,79.99
2022-08-20T21:10:34.848Z,80.06
2022-08-20T21:13:08.031Z,79.85
2022-08-20T21:15:40.199Z,79.95
2022-08-20T21:18:12.098Z,79.97
2022-08-20T21:20:43.271Z,79.97
2022-08-20T21:23:14.574Z,80.11
2022-08-20T21:25:45.391Z,80.00
2022-08-20T21:28:16.467Z,80.22
2022-08-20T21:30:47.507Z,80.31
2022-08-20T21:33:18.470Z,80.62
2022-08-20T21:35:49.746Z,80.51
2022-08-20T21:38:20.761Z,80.36
2022-08-20T21:40:51.900Z,80.36
2022-08-20T21:43:22.699Z,80.58
2022-08-20T21:45:54.462Z,80.62
2022-08-20T21:48:26.449Z,80.52
2022-08-20T21:50:57.496Z,80.52
2022-08-20T21:53:28.228Z,80.42
2022-08-20T21:56:00.506Z,80.21
2022-08-20T21:58:31.459Z,80.14
2022-08-20T22:01:05.305Z,80.04
2022-08-20T22:03:41.070Z,80.40
2022-08-20T22:06:14.498Z,80.25
2022-08-20T22:08:45.605Z,80.18
2022-08-20T22:11:17.502Z,80.19
2022-08-20T22:13:48.831Z,80.40
2022-08-20T22:16:21.655Z,80.40
2022-08-20T22:18:53.319Z,80.27
2022-08-20T22:21:27.154Z,80.42
2022-08-20T22:24:00.728Z,80.02
2022-08-20T22:26:32.957Z,80.03
2022-08-20T22:29:04.503Z,80.03
2022-08-20T22:31:38.468Z,80.17
2022-08-20T22:34:09.879Z,80.13
2022-08-20T22:36:41.417Z,80.17
2022-08-20T22:39:12.447Z,80.21
2022-08-20T22:41:44.024Z,80.35
2022-08-20T22:44:15.188Z,80.34
2022-08-20T22:46:49.605Z,80.37
2022-08-20T22:49:23.260Z,80.24
2022-08-20T22:51:54.361Z,80.52
2022-08-20T22:54:28.356Z,80.45
2022-08-20T22:56:59.509Z,80.51
2022-08-20T22:59:31.126Z,80.41
2022-08-20T23:02:08.333Z,80.38
2022-08-20T23:04:39.629Z,80.39
2022-08-20T23:07:13.611Z,80.16
2022-08-20T23:09:45.990Z,80.40
2022-08-20T23:12:17.120Z,80.11
2022-08-20T23:14:48.336Z,80.06
2022-08-20T23:17:20.071Z,79.94
2022-08-20T23:19:51.994Z,79.94
2022-08-20T23:22:23.210Z,80.00
2022-08-20T23:24:57.351Z,79.95
2022-08-20T23:27:32.566Z,80.01
2022-08-20T23:30:03.424Z,80.18
2022-08-20T23:32:34.479Z,80.12
2022-08-20T23:35:05.781Z,79.42
2022-08-20T23:37:41.471Z,79.71
2022-08-20T23:40:14.180Z,79.88
2022-08-20T23:42:45.582Z,79.94
2022-08-20T23:45:17.592Z,79.91
2022-08-20T23:47:50.107Z,79.99
2022-08-20T23:50:24.166Z,80.12
2022-08-20T23:52:56.262Z,80.02
2022-08-20T23:55:28.156Z,80.21
2022-08-20T23:57:59.405Z,80.02
